Main page
METAR-TAF:

METAR-TAF

Airports :

Cherbourg – Maupertus Airport

Cherbourg, France

latitude: 49-39N, longitude: 001-28W, elevation: 138 m

Current weather observation

The report was made 26 minutes ago, at 07:30 UTC
Wind 3 kt from variable directions
Temperature 8°C
Humidity 87%
Pressure 1030 hPa
Visibility 10 km or more
no clouds below 1500 m and no cumulonimbus

METAR: LFRC 240730Z AUTO VRB03KT CAVOK 08/06 Q1030 NOSIG

Time: 08:56 (07:56 UTC)

Forecast

The report was made 2 hours and 56 minutes ago, at 05:00 UTC
Forecast valid from 24 at 06 UTC to 24 at 15 UTC
Wind 5 kt from the East/Northeast
Visibility 10 km or more
Broken clouds at a height of 3000 ft
Becoming
from 24 at 10 UTC to 24 at 12 UTC
Wind 10 kt from the North

TAF: LFRC 240500Z 2406/2415 06005KT 9999 BKN030 BECMG 2410/2412 35010KT

Weather observations and forecasts of more than 4000 airports (METAR and TAF reports).

The available stations are represented by yellow and red dots on the map.

Hover mouse over dot to see the name of the station.

Then click to see weather observations and forecasts.

To change the map : click on the green buttons with a black cross to zoom in, on the green button with a dash to zoom out, or on the green arrows for adjacent maps.


METAR-TAF: